Aeroporto :
LOGIN :

Iscrizione | Disclaimer

   EN    FR    IT 

 










Sommario :    VFR   VFR Marginale   IFR   IFR Intensivo   IFR Molto Intensivo
Visibilità : 
Base nubi : 
>= 8 km
>= 3000ft
5 / 8 km
1000 / 3000 ft
1500m / 5 km
500 / 1000 ft
800 / 1500m
200 / 500 ft
< 800m
< 200 ft
Simboli :   Temporali  Nebbia  Neve Forte  Precipitazioni Forti  Vento > 20 kt
SIGMETs :   Varie  Temporali  Ghiacco  Turbolenza  Onda orograficha  Ceneri Vulcaniche







- Altitudine del aeroporto : 1046 ft
- Codice IATA : NUE


EDDN - Nuremberg

ULTIMO METAR :
  • 191220Z 09014KT CAVOK 22/M00 Q1028 NOSIG

METARs OBSOLETI :
  • 191150Z 11012KT 070V150 CAVOK 22/01 Q1028 NOSIG
  • 191120Z 11011KT 080V140 CAVOK 21/00 Q1028 NOSIG
  • 191050Z 12013KT CAVOK 21/M00 Q1028 NOSIG
  • 191020Z 12014KT 070V150 CAVOK 21/00 Q1028 NOSIG
  • 190950Z 13015KT 090V150 CAVOK 20/01 Q1029 NOSIG

TAF TAF EDDN
Valido dal 19 a 12 ore il 20 a 12 ore UTC


191100Z 1912/2012 11012KT CAVOK
PROB30
TEMPO 1912/1915 12015G25KT
BECMG 1917/1919 07005KT
Nessun NOTAM noto per questo aeroporto.



MetMap, La meteo Aeronautica in un colpo d'occhio ! - Copyright ORBIFLY Dicembre 2007 - Disclaimer

ORBIFLY MET'MAP TEAM :

Programmazione e sviluppo : Alexandra Zaïnal
Concezione e sviluppo : Baudouin d'Aumeries
Co-Programmazione e sviluppo : Marc-Olivier Méhu
Supporto tecnico e logistico : Manuel Goepfert
Aiuto per la traduzione : Arnaldo La Scala

Contatto : metmap@orbifly.com




FONTI E CREDITI :

   NOAA